Time;durP1;ratioP1;P1;durP2;ratioP2;P2;SDS_P1;SDS_P2;PMS_P1;PMS_P2;Temp;Humidity;BMP_temperature;BMP_pressure;BME280_temperature;BME280_humidity;BME280_pressure;Samples;Min_cycle;Max_cycle;Signal;HPM_P1;HPM_P2
2022/03/19 00:00:24;;;;;;;3.97;3.58;;;;;;;8.41;59.98;103600.34;4999122;28;20014;-71
2022/03/19 00:02:50;;;;;;;4.05;3.60;;;;;;;8.32;59.83;103584.81;5008409;27;20390;-72
2022/03/19 00:05:16;;;;;;;7.90;4.00;;;;;;;8.40;59.60;103593.34;5017560;27;20009;-71
2022/03/19 00:07:41;;;;;;;6.20;3.85;;;;;;;8.30;60.13;103590.16;5003215;27;20070;-72
2022/03/19 00:10:08;;;;;;;6.50;3.90;;;;;;;8.20;60.40;103592.22;5033991;27;20125;-71
2022/03/19 00:12:35;;;;;;;7.45;3.95;;;;;;;8.23;60.35;103588.63;5018595;27;20176;-71
2022/03/19 00:15:00;;;;;;;4.25;3.70;;;;;;;8.27;60.00;103587.63;5018459;27;20009;-71
2022/03/19 00:17:26;;;;;;;6.28;4.35;;;;;;;8.23;60.56;103581.59;5035559;27;20050;-71
2022/03/19 00:19:51;;;;;;;5.93;3.90;;;;;;;8.22;60.86;103576.34;5038603;27;21059;-70
2022/03/19 00:22:16;;;;;;;6.00;4.18;;;;;;;8.20;60.78;103588.72;5016582;27;20470;-71
2022/03/19 00:24:42;;;;;;;4.32;3.90;;;;;;;8.01;61.36;103576.16;5037503;27;20012;-71
2022/03/19 00:27:07;;;;;;;6.35;4.60;;;;;;;8.03;61.42;103574.31;5033395;27;20532;-70
2022/03/19 00:29:32;;;;;;;6.10;4.10;;;;;;;8.10;60.93;103571.50;5018311;27;20077;-71
2022/03/19 00:31:58;;;;;;;4.50;4.00;;;;;;;8.07;61.27;103583.84;5004793;27;20013;-71
2022/03/19 00:34:23;;;;;;;6.25;3.92;;;;;;;7.95;61.26;103591.31;5030856;27;20009;-71
2022/03/19 00:36:49;;;;;;;4.40;4.00;;;;;;;7.98;61.80;103588.56;5040992;27;20333;-71
2022/03/19 00:39:15;;;;;;;7.10;4.45;;;;;;;8.04;61.66;103588.38;5036198;27;20043;-71
2022/03/19 00:41:40;;;;;;;6.85;4.30;;;;;;;8.00;61.83;103573.56;5038415;27;20025;-71
2022/03/19 00:44:06;;;;;;;5.80;4.68;;;;;;;8.07;61.58;103583.00;5022632;27;20029;-70
2022/03/19 00:46:31;;;;;;;4.78;4.18;;;;;;;8.13;61.31;103579.31;5037200;27;20036;-70
2022/03/19 00:48:56;;;;;;;6.40;4.20;;;;;;;7.89;62.10;103580.03;5036605;27;20383;-71
2022/03/19 00:51:22;;;;;;;7.30;4.47;;;;;;;8.05;61.18;103579.53;5035498;27;20021;-71
2022/03/19 00:53:47;;;;;;;5.10;4.10;;;;;;;8.00;61.73;103586.75;5017138;28;20059;-70
2022/03/19 00:56:13;;;;;;;7.35;4.60;;;;;;;8.01;61.33;103585.81;5001918;27;20032;-71
2022/03/19 00:58:38;;;;;;;6.00;4.00;;;;;;;8.09;61.20;103581.16;5043222;27;20068;-70
2022/03/19 01:01:04;;;;;;;5.50;4.60;;;;;;;8.02;61.39;103580.53;5036319;27;20033;-70
2022/03/19 01:03:29;;;;;;;7.38;3.90;;;;;;;7.92;61.45;103579.09;5041651;27;20535;-71
2022/03/19 01:05:55;;;;;;;6.22;4.13;;;;;;;7.93;62.22;103574.69;5004144;27;20417;-71
2022/03/19 01:08:20;;;;;;;7.30;4.65;;;;;;;7.93;61.39;103564.13;5038321;27;20028;-71
2022/03/19 01:10:45;;;;;;;5.15;4.18;;;;;;;7.90;62.00;103565.94;5021418;27;20029;-71
2022/03/19 01:13:11;;;;;;;6.43;4.32;;;;;;;7.95;61.70;103567.56;5042926;27;20025;-71
2022/03/19 01:15:37;;;;;;;5.70;4.30;;;;;;;8.12;61.32;103573.16;5022861;27;20998;-70
2022/03/19 01:18:02;;;;;;;6.03;4.20;;;;;;;8.16;60.89;103569.50;5021843;27;20832;-71
2022/03/19 01:20:28;;;;;;;5.70;4.20;;;;;;;8.21;60.77;103561.44;5038282;27;20120;-70
2022/03/19 01:22:54;;;;;;;7.90;4.68;;;;;;;7.99;60.77;103561.28;5040074;27;20078;-70
2022/03/19 01:25:19;;;;;;;6.40;4.30;;;;;;;7.98;61.49;103573.63;5037934;27;20024;-70
2022/03/19 01:27:46;;;;;;;4.70;4.18;;;;;;;8.03;60.75;103568.19;5035052;27;21099;-71
2022/03/19 01:30:12;;;;;;;6.68;4.20;;;;;;;7.88;61.40;103572.19;5022179;27;20016;-70
2022/03/19 01:32:38;;;;;;;4.63;4.10;;;;;;;7.72;61.95;103561.28;5043297;27;20415;-70
2022/03/19 01:35:03;;;;;;;5.88;4.32;;;;;;;7.68;61.99;103564.91;5044501;27;20020;-70
2022/03/19 01:37:29;;;;;;;7.18;4.43;;;;;;;7.70;61.84;103563.09;5026356;27;20402;-70
2022/03/19 01:39:55;;;;;;;5.45;4.72;;;;;;;7.58;61.52;103553.78;5025625;27;20173;-70
2022/03/19 01:42:24;;;;;;;6.78;4.57;;;;;;;7.71;61.54;103549.00;5042375;27;20448;-71
2022/03/19 01:44:50;;;;;;;5.78;4.18;;;;;;;7.65;61.84;103543.94;5044018;27;20201;-70
2022/03/19 01:47:15;;;;;;;6.60;4.40;;;;;;;7.76;61.78;103552.34;5030177;27;20023;-71
2022/03/19 01:49:41;;;;;;;4.82;4.15;;;;;;;7.74;61.73;103543.63;5046487;27;20097;-71
2022/03/19 01:52:06;;;;;;;5.45;4.03;;;;;;;7.56;61.61;103545.94;5042892;27;20083;-70
2022/03/19 01:54:34;;;;;;;6.30;4.20;;;;;;;7.67;61.61;103548.25;5049364;27;21416;-70
2022/03/19 01:56:59;;;;;;;5.97;4.57;;;;;;;7.58;61.68;103537.97;5024900;27;20063;-71
2022/03/19 01:59:26;;;;;;;5.63;4.15;;;;;;;7.64;61.65;103534.28;4994111;28;20021;-71
2022/03/19 02:01:51;;;;;;;5.10;4.45;;;;;;;7.41;61.85;103525.31;5008034;28;20785;-70
2022/03/19 02:04:18;;;;;;;6.35;4.55;;;;;;;7.44;61.97;103530.50;5049802;27;20044;-70
2022/03/19 02:06:44;;;;;;;6.03;4.20;;;;;;;7.26;62.78;103531.06;5004254;28;20013;-70
2022/03/19 02:09:10;;;;;;;5.75;4.40;;;;;;;7.24;62.51;103533.75;5001697;28;20021;-71
2022/03/19 02:11:36;;;;;;;5.57;4.00;;;;;;;7.20;62.84;103538.22;4999721;28;20449;-71
2022/03/19 02:14:01;;;;;;;5.05;4.50;;;;;;;7.29;62.46;103534.47;4998205;28;20025;-70
2022/03/19 02:16:27;;;;;;;5.40;4.20;;;;;;;7.19;62.68;103530.38;5015070;28;20020;-70
2022/03/19 02:18:52;;;;;;;5.65;4.45;;;;;;;7.19;62.20;103533.91;5033799;28;20041;-70
2022/03/19 02:21:18;;;;;;;4.82;4.00;;;;;;;7.09;62.65;103526.31;5026724;27;20018;-70
2022/03/19 02:26:27;;;;;;;4.97;4.50;;;;;;;6.93;63.19;103518.00;5021801;27;20021;-70
2022/03/19 02:28:53;;;;;;;5.45;4.25;;;;;;;6.90;63.18;103513.69;4980804;28;20437;-71
2022/03/19 02:31:19;;;;;;;7.07;4.78;;;;;;;6.68;63.70;103513.41;4976350;28;20009;-70
2022/03/19 02:33:44;;;;;;;5.07;4.32;;;;;;;6.85;63.47;103519.09;4994741;28;20034;-71
2022/03/19 02:36:09;;;;;;;4.68;4.00;;;;;;;6.70;63.35;103522.16;4995283;28;20258;-70
2022/03/19 02:38:35;;;;;;;6.22;4.50;;;;;;;6.75;63.46;103506.22;4994446;28;20041;-70
2022/03/19 02:41:04;;;;;;;6.47;4.72;;;;;;;6.52;64.21;103524.38;4976496;28;20903;-71
2022/03/19 02:43:29;;;;;;;5.72;4.47;;;;;;;6.52;64.20;103511.22;4994523;28;20237;-70
2022/03/19 02:45:55;;;;;;;6.35;4.15;;;;;;;6.37;64.49;103514.25;5012393;28;20766;-71
2022/03/19 02:48:20;;;;;;;5.63;4.07;;;;;;;6.35;64.61;103513.44;4980335;28;20028;-70
2022/03/19 02:50:45;;;;;;;6.80;4.43;;;;;;;6.42;64.34;103512.38;5012884;28;20837;-70
2022/03/19 02:53:11;;;;;;;5.55;4.50;;;;;;;6.49;63.86;103513.94;4995172;28;20025;-70
2022/03/19 02:55:38;;;;;;;6.20;4.32;;;;;;;6.44;64.31;103507.91;4998577;28;20014;-70
2022/03/19 02:58:03;;;;;;;5.47;4.40;;;;;;;6.28;64.85;103507.47;4997680;27;20433;-70
2022/03/19 03:00:29;;;;;;;7.03;4.35;;;;;;;6.06;65.10;103503.69;5017355;27;20013;-71
2022/03/19 03:02:54;;;;;;;5.93;4.03;;;;;;;6.14;65.29;103502.56;4996056;28;20255;-70
2022/03/19 03:05:20;;;;;;;5.63;4.30;;;;;;;6.12;64.68;103499.13;5015675;27;20029;-70
2022/03/19 03:07:45;;;;;;;6.85;4.22;;;;;;;6.10;65.37;103500.91;5015925;28;20864;-70
2022/03/19 03:10:10;;;;;;;6.03;4.25;;;;;;;6.14;64.24;103501.72;5032214;27;20021;-70
2022/03/19 03:12:36;;;;;;;6.90;4.45;;;;;;;6.07;64.98;103501.00;5006306;27;20040;-70
2022/03/19 03:15:01;;;;;;;6.00;4.13;;;;;;;6.00;64.54;103489.78;5016833;27;20053;-69
2022/03/19 03:17:27;;;;;;;5.50;4.20;;;;;;;5.97;64.86;103488.97;4978732;28;20017;-70
2022/03/19 03:19:53;;;;;;;6.05;4.63;;;;;;;5.87;65.70;103487.50;4982557;28;20049;-70
2022/03/19 03:22:18;;;;;;;7.20;4.40;;;;;;;5.84;65.18;103493.69;5034245;27;20009;-70
2022/03/19 03:24:44;;;;;;;6.30;3.90;;;;;;;5.96;65.21;103481.97;5035138;27;20029;-70
2022/03/19 03:27:09;;;;;;;4.70;4.20;;;;;;;5.90;64.98;103476.91;5015089;27;20040;-70
2022/03/19 03:29:35;;;;;;;6.35;4.28;;;;;;;5.65;66.03;103477.47;5015197;27;20028;-71
2022/03/19 03:32:00;;;;;;;6.43;4.30;;;;;;;5.71;65.14;103479.97;5034897;27;20029;-70
2022/03/19 03:34:26;;;;;;;5.20;4.03;;;;;;;5.75;65.59;103481.59;5033594;27;20017;-70
2022/03/19 03:36:51;;;;;;;3.90;3.45;;;;;;;5.53;66.03;103483.03;5036950;27;20021;-70
2022/03/19 03:39:16;;;;;;;7.00;3.65;;;;;;;5.45;65.77;103478.81;5018424;27;20041;-70
2022/03/19 03:41:42;;;;;;;4.60;3.58;;;;;;;5.56;65.98;103485.59;5014900;27;20877;-70
2022/03/19 03:44:07;;;;;;;5.82;3.80;;;;;;;5.21;66.92;103477.63;4999882;27;20069;-70
2022/03/19 03:46:32;;;;;;;4.00;3.70;;;;;;;5.39;66.47;103486.00;5034078;27;20077;-70
2022/03/19 03:48:58;;;;;;;5.30;3.70;;;;;;;5.13;67.36;103477.81;4999565;27;20029;-70
2022/03/19 03:51:23;;;;;;;4.70;3.40;;;;;;;5.30;66.24;103471.28;5035177;27;20288;-70
2022/03/19 03:53:49;;;;;;;5.97;3.67;;;;;;;5.14;66.84;103474.25;5025164;27;20860;-70
2022/03/19 03:56:14;;;;;;;4.95;3.50;;;;;;;5.18;66.87;103482.09;5023837;27;20125;-70
2022/03/19 03:58:42;;;;;;;7.82;4.32;;;;;;;5.37;66.05;103478.13;5036150;27;20025;-70
2022/03/19 04:01:08;;;;;;;4.53;3.70;;;;;;;5.22;66.59;103478.47;5030974;27;20358;-70
2022/03/19 04:03:34;;;;;;;8.15;4.15;;;;;;;5.20;66.45;103473.25;5019232;27;20791;-70
2022/03/19 04:06:00;;;;;;;4.40;3.65;;;;;;;5.13;66.99;103469.94;5012300;27;20013;-70
2022/03/19 04:08:25;;;;;;;5.80;4.00;;;;;;;4.89;68.06;103468.66;5032892;27;20040;-70
2022/03/19 04:10:50;;;;;;;4.20;3.75;;;;;;;4.98;66.93;103471.13;5033548;27;20118;-70
2022/03/19 04:13:16;;;;;;;4.65;3.92;;;;;;;5.11;66.77;103468.22;5034847;27;20016;-69
2022/03/19 04:15:41;;;;;;;5.90;3.92;;;;;;;4.98;67.14;103470.25;5032523;27;20020;-71
2022/03/19 04:18:07;;;;;;;5.38;3.88;;;;;;;4.53;68.34;103465.06;4996261;27;20812;-71
2022/03/19 04:20:32;;;;;;;6.60;4.45;;;;;;;4.58;69.02;103471.06;5014426;27;20277;-70
2022/03/19 04:22:57;;;;;;;5.75;4.00;;;;;;;4.96;67.61;103464.16;5036697;27;20021;-70
2022/03/19 04:25:24;;;;;;;4.13;3.33;;;;;;;5.05;67.45;103469.22;5023928;27;20032;-70
2022/03/19 04:27:50;;;;;;;5.50;3.67;;;;;;;4.91;67.45;103463.41;5032390;27;20187;-70
2022/03/19 04:30:16;;;;;;;4.68;3.63;;;;;;;4.86;67.25;103450.38;4996483;27;20684;-71
2022/03/19 04:32:49;;;;;;;4.97;3.55;;;;;;;4.92;67.27;103466.00;5014033;27;20279;-70
2022/03/19 04:38:00;;;;;;;8.32;4.35;;;;;;;5.03;66.85;103465.75;5032241;27;20043;-70
2022/03/19 04:40:25;;;;;;;7.00;3.83;;;;;;;4.85;67.81;103463.53;5033242;27;20179;-70
2022/03/19 04:42:51;;;;;;;4.50;3.78;;;;;;;4.74;68.34;103471.66;5012922;27;20009;-70
2022/03/19 04:45:16;;;;;;;4.65;3.90;;;;;;;4.66;67.87;103470.94;5015752;27;20017;-71
2022/03/19 04:47:42;;;;;;;5.15;3.78;;;;;;;4.44;68.82;103477.47;5014679;27;20069;-70
2022/03/19 04:50:07;;;;;;;5.57;3.72;;;;;;;4.54;68.47;103472.91;5034258;27;20028;-70
2022/03/19 04:52:34;;;;;;;4.85;3.38;;;;;;;4.39;68.89;103460.94;5031111;27;20617;-70
2022/03/19 04:55:00;;;;;;;9.65;3.72;;;;;;;4.25;70.19;103478.69;5028655;27;20009;-70
2022/03/19 04:57:27;;;;;;;6.95;3.70;;;;;;;4.58;68.64;103468.44;5030504;27;20083;-69
2022/03/19 04:59:53;;;;;;;6.88;3.70;;;;;;;4.68;68.63;103467.34;5032368;27;20090;-70
2022/03/19 05:02:18;;;;;;;4.13;3.45;;;;;;;4.63;67.79;103463.97;5012879;27;20073;-70
2022/03/19 05:04:44;;;;;;;5.75;3.63;;;;;;;4.34;68.84;103475.88;4997221;27;20013;-70
2022/03/19 05:07:10;;;;;;;6.88;3.70;;;;;;;4.11;69.79;103471.91;5030350;27;20024;-70
2022/03/19 05:12:30;;;;;;;4.70;3.78;;;;;;;4.01;70.30;103461.66;5053810;27;20523;-69
2022/03/19 05:14:55;;;;;;;6.00;4.00;;;;;;;4.25;69.43;103469.06;5053681;27;20016;-70
2022/03/19 05:17:21;;;;;;;4.22;3.60;;;;;;;4.17;69.77;103470.09;5053198;27;20016;-70
2022/03/19 05:19:46;;;;;;;3.85;3.40;;;;;;;4.08;70.05;103477.22;5055493;27;20979;-70
2022/03/19 05:22:11;;;;;;;4.80;3.78;;;;;;;3.91;71.38;103468.81;5044607;27;20001;-70
2022/03/19 05:24:37;;;;;;;5.50;3.70;;;;;;;3.96;70.84;103461.72;5032777;27;20537;-70
2022/03/19 05:27:03;;;;;;;6.22;3.78;;;;;;;3.99;70.59;103471.28;5015331;27;20920;-69
2022/03/19 05:29:31;;;;;;;8.25;4.00;;;;;;;3.92;70.58;103470.50;4997973;27;20170;-70
2022/03/19 05:31:56;;;;;;;5.47;3.72;;;;;;;4.20;70.01;103476.16;5013213;27;20132;-70
2022/03/19 05:34:31;;;;;;;4.47;3.60;;;;;;;4.15;70.05;103472.75;5031583;27;20488;-70
2022/03/19 05:37:00;;;;;;;3.72;3.25;;;;;;;4.28;69.22;103466.38;5017213;27;20036;-70
2022/03/19 05:39:26;;;;;;;5.43;3.38;;;;;;;4.37;68.94;103470.59;5033981;27;20040;-70
2022/03/19 05:41:52;;;;;;;4.47;3.42;;;;;;;4.32;68.74;103479.44;5015981;27;20055;-70
2022/03/19 05:44:17;;;;;;;5.07;3.63;;;;;;;4.16;69.01;103471.88;5037454;27;20020;-70
2022/03/19 05:46:42;;;;;;;4.15;3.53;;;;;;;4.15;68.98;103472.75;5034013;27;20548;-70
2022/03/19 05:49:08;;;;;;;5.43;3.42;;;;;;;4.07;69.33;103474.63;5033933;27;20503;-70
2022/03/19 05:51:34;;;;;;;4.55;3.30;;;;;;;4.12;69.17;103472.81;5030910;27;20960;-69
2022/03/19 05:53:59;;;;;;;5.30;4.00;;;;;;;4.24;69.07;103476.94;5032055;27;20079;-69
2022/03/19 05:56:24;;;;;;;4.13;3.40;;;;;;;4.30;68.68;103479.44;5030668;28;20174;-70
2022/03/19 05:58:50;;;;;;;8.23;4.07;;;;;;;4.20;68.74;103485.75;5034895;27;20033;-71
2022/03/19 06:01:16;;;;;;;4.18;3.70;;;;;;;4.12;69.56;103473.66;4995065;28;20604;-72
2022/03/19 06:03:41;;;;;;;5.40;3.35;;;;;;;4.21;69.07;103482.25;5010426;28;20037;-72
2022/03/19 06:06:06;;;;;;;3.85;3.45;;;;;;;4.05;70.27;103487.75;5010296;27;20013;-73
2022/03/19 06:08:32;;;;;;;4.03;3.30;;;;;;;4.23;69.26;103485.69;5050645;27;20040;-72
2022/03/19 06:10:58;;;;;;;4.57;3.40;;;;;;;4.23;69.65;103485.69;5050387;27;20089;-72
2022/03/19 06:13:24;;;;;;;5.43;3.72;;;;;;;4.05;70.08;103493.00;5051774;27;20525;-73
2022/03/19 06:15:49;;;;;;;6.35;3.50;;;;;;;4.29;69.42;103488.22;5033120;27;20779;-72
2022/03/19 06:18:14;;;;;;;6.93;3.80;;;;;;;4.25;69.83;103489.16;5033411;27;20025;-72
2022/03/19 06:20:40;;;;;;;5.47;3.83;;;;;;;4.31;69.61;103483.81;5034524;27;20024;-71
2022/03/19 06:23:05;;;;;;;5.03;3.85;;;;;;;4.09;70.50;103481.59;5038500;27;20005;-70
2022/03/19 06:25:30;;;;;;;5.53;3.50;;;;;;;4.24;70.51;103477.81;5033522;27;20909;-72
2022/03/19 06:27:56;;;;;;;5.75;3.95;;;;;;;4.39;70.04;103473.19;5033005;27;20378;-72
2022/03/19 06:30:21;;;;;;;7.70;3.90;;;;;;;4.27;70.29;103467.28;5015870;27;20017;-72
2022/03/19 06:32:48;;;;;;;5.55;3.67;;;;;;;4.53;70.14;103475.56;5000070;27;20330;-71
2022/03/19 06:37:19;;;;;;;5.88;3.58;;;;;;;4.67;69.43;103478.75;5034005;27;20025;-73
2022/03/19 06:37:58;;;;;;;6.75;4.15;;;;;;;4.71;69.56;103469.06;5019658;27;20032;-70
2022/03/19 06:40:25;;;;;;;5.32;3.88;;;;;;;4.71;70.10;103463.81;5033404;27;20032;-72
2022/03/19 06:42:51;;;;;;;5.07;4.10;;;;;;;4.70;70.28;103462.09;5036262;27;20048;-72
2022/03/19 06:45:17;;;;;;;5.38;4.18;;;;;;;4.81;69.93;103473.25;5033484;27;20043;-72
2022/03/19 06:47:42;;;;;;;5.32;3.92;;;;;;;4.98;69.51;103470.25;5033841;27;20025;-70
2022/03/19 06:50:07;;;;;;;5.50;4.15;;;;;;;4.90;70.06;103469.56;5034946;27;20025;-72
2022/03/19 06:52:33;;;;;;;5.38;3.97;;;;;;;5.05;69.68;103466.59;5011368;28;20021;-74
2022/03/19 06:54:58;;;;;;;5.57;4.22;;;;;;;4.98;70.16;103480.75;4992439;27;20085;-71
2022/03/19 06:57:24;;;;;;;5.40;4.10;;;;;;;5.19;70.15;103478.53;5031503;27;20017;-72
2022/03/19 06:59:49;;;;;;;7.00;4.78;;;;;;;5.15;69.98;103472.53;5032408;27;20425;-71
2022/03/19 07:02:14;;;;;;;4.60;4.20;;;;;;;5.46;69.38;103477.94;5017350;27;20024;-72
2022/03/19 07:04:40;;;;;;;6.80;4.57;;;;;;;5.50;69.40;103479.59;5015077;27;20605;-72
2022/03/19 07:07:05;;;;;;;4.65;4.25;;;;;;;5.65;69.36;103482.75;5015433;27;20024;-72
2022/03/19 07:09:31;;;;;;;5.25;4.70;;;;;;;5.67;69.53;103475.69;5014961;27;20036;-73
2022/03/19 07:11:56;;;;;;;6.38;4.78;;;;;;;5.88;69.08;103470.78;5014368;27;20024;-72
2022/03/19 07:14:22;;;;;;;5.93;4.25;;;;;;;6.13;68.63;103464.03;4998958;27;20230;-71
2022/03/19 07:16:48;;;;;;;7.78;4.40;;;;;;;6.27;69.02;103478.59;5014591;27;20072;-72
2022/03/19 07:19:13;;;;;;;6.32;3.90;;;;;;;6.41;67.73;103460.66;5013419;27;20983;-72
2022/03/19 07:21:39;;;;;;;8.15;4.18;;;;;;;6.62;67.38;103467.09;5011223;28;20102;-72
2022/03/19 07:24:05;;;;;;;5.10;3.92;;;;;;;6.78;67.04;103462.28;5029157;27;20040;-71
2022/03/19 07:26:32;;;;;;;6.18;4.03;;;;;;;6.98;66.28;103458.16;5015110;27;20021;-72
2022/03/19 07:28:58;;;;;;;4.60;4.00;;;;;;;7.03;65.61;103453.63;5017101;27;20112;-72
2022/03/19 07:31:23;;;;;;;6.28;4.10;;;;;;;7.13;65.01;103457.69;4993620;28;20017;-72
2022/03/19 07:33:50;;;;;;;5.60;3.90;;;;;;;7.31;64.86;103461.53;5013614;28;20029;-72
2022/03/19 07:36:16;;;;;;;6.32;3.90;;;;;;;7.42;64.40;103455.06;5012005;27;20932;-72
2022/03/19 07:38:41;;;;;;;6.30;4.07;;;;;;;7.48;64.22;103463.63;5011009;28;20059;-72
2022/03/19 07:43:51;;;;;;;7.10;3.90;;;;;;;7.73;63.16;103452.28;5037445;27;20027;-71
2022/03/19 07:46:16;;;;;;;6.53;3.65;;;;;;;7.87;62.27;103447.41;5036796;27;20247;-71
2022/03/19 07:48:42;;;;;;;4.38;3.83;;;;;;;7.97;62.42;103450.59;5052866;27;20009;-72
2022/03/19 07:51:07;;;;;;;4.97;3.47;;;;;;;8.08;62.11;103443.16;5033015;27;20021;-70
2022/03/19 07:53:33;;;;;;;6.22;3.95;;;;;;;8.67;62.64;103437.59;5010806;27;20005;-70
2022/03/19 07:55:58;;;;;;;4.13;3.13;;;;;;;8.65;60.69;103445.56;5016101;27;20074;-70
2022/03/19 07:58:24;;;;;;;5.50;3.70;;;;;;;8.69;60.83;103438.41;4997399;27;20082;-70
2022/03/19 08:00:49;;;;;;;4.55;3.47;;;;;;;8.75;60.14;103438.16;5035423;27;20467;-72
2022/03/19 08:03:14;;;;;;;6.28;3.50;;;;;;;8.69;59.52;103435.75;5024762;27;20166;-73
2022/03/19 08:05:43;;;;;;;6.65;3.63;;;;;;;8.74;59.87;103436.44;5030191;27;20553;-72
2022/03/19 08:08:08;;;;;;;7.60;3.30;;;;;;;8.83;59.84;103440.53;5030857;27;20025;-72
2022/03/19 08:10:35;;;;;;;5.10;3.20;;;;;;;9.02;59.26;103445.94;5019932;27;20730;-73
2022/03/19 08:13:05;;;;;;;6.13;3.40;;;;;;;8.99;59.05;103438.13;5027650;27;20024;-73
2022/03/19 08:15:31;;;;;;;6.30;3.78;;;;;;;9.03;59.29;103437.94;5030241;27;20025;-73
2022/03/19 08:17:56;;;;;;;5.30;3.35;;;;;;;9.15;58.03;103441.03;5016621;27;20025;-73
2022/03/19 08:20:22;;;;;;;4.50;3.38;;;;;;;9.38;57.92;103429.56;5032999;27;20040;-72
2022/03/19 08:22:47;;;;;;;4.05;3.40;;;;;;;9.40;56.86;103432.97;5034296;27;20025;-72
2022/03/19 08:25:13;;;;;;;6.55;3.45;;;;;;;9.54;56.60;103430.63;5026688;27;20929;-72
2022/03/19 08:27:38;;;;;;;5.60;3.53;;;;;;;9.67;57.24;103433.59;5006030;27;20572;-71
2022/03/19 08:30:04;;;;;;;4.70;3.17;;;;;;;9.82;56.10;103432.09;5022298;27;20021;-71
2022/03/19 08:32:30;;;;;;;5.18;3.28;;;;;;;10.00;55.17;103429.59;5017743;27;20208;-71
2022/03/19 08:34:55;;;;;;;6.78;3.60;;;;;;;10.08;54.44;103433.66;5023599;27;20818;-72
2022/03/19 08:37:21;;;;;;;5.63;3.55;;;;;;;10.30;55.71;103425.59;4999630;27;20012;-71
2022/03/19 08:42:33;;;;;;;4.90;3.17;;;;;;;10.79;53.81;103434.91;5015534;27;20024;-71
2022/03/19 08:44:58;;;;;;;6.63;3.30;;;;;;;10.91;53.91;103423.72;4978341;28;20489;-71
2022/03/19 08:47:24;;;;;;;5.78;3.30;;;;;;;10.93;52.67;103432.47;5011644;28;20760;-72
2022/03/19 08:49:49;;;;;;;4.35;3.00;;;;;;;11.04;52.90;103433.75;4988059;27;20017;-71
2022/03/19 08:52:14;;;;;;;4.35;3.58;;;;;;;11.17;51.30;103424.28;4989482;27;20018;-73
2022/03/19 08:54:40;;;;;;;5.82;3.42;;;;;;;11.36;51.82;103433.97;4999528;28;20851;-72
2022/03/19 08:57:05;;;;;;;4.68;3.13;;;;;;;11.57;49.91;103422.28;4987649;27;20033;-71
2022/03/19 08:59:30;;;;;;;5.55;2.95;;;;;;;11.41;47.45;103422.22;5022047;27;20421;-71
2022/03/19 09:01:56;;;;;;;4.53;3.22;;;;;;;11.48;47.01;103422.78;5003602;27;20975;-71
2022/03/19 09:04:21;;;;;;;5.22;3.30;;;;;;;11.52;46.78;103414.56;5006793;27;20049;-72
2022/03/19 09:06:47;;;;;;;5.90;3.63;;;;;;;11.77;47.16;103423.09;5007556;27;20037;-72
2022/03/19 09:09:14;;;;;;;5.80;3.28;;;;;;;12.16;45.03;103406.06;4994649;27;20024;-72
2022/03/19 09:11:40;;;;;;;5.35;3.17;;;;;;;12.49;45.83;103405.16;5010373;28;20129;-72
2022/03/19 09:14:06;;;;;;;4.65;2.70;;;;;;;12.68;45.16;103399.72;4997114;28;20504;-72
2022/03/19 09:16:31;;;;;;;4.10;2.63;;;;;;;13.03;43.67;103403.03;4994581;28;20128;-72
2022/03/19 09:18:57;;;;;;;3.90;2.58;;;;;;;13.34;43.38;103409.25;4981903;28;20132;-72
2022/03/19 09:21:22;;;;;;;4.10;2.67;;;;;;;13.69;41.45;103395.72;4976439;28;20140;-72
2022/03/19 09:23:49;;;;;;;3.65;2.80;;;;;;;13.78;40.67;103401.44;4994323;28;20161;-72
2022/03/19 09:26:17;;;;;;;6.45;2.80;;;;;;;13.56;38.88;103387.59;5011038;28;20852;-72
2022/03/19 09:28:43;;;;;;;3.42;2.65;;;;;;;13.60;38.52;103392.75;4997157;28;20465;-71
2022/03/19 09:31:08;;;;;;;4.30;2.30;;;;;;;14.24;38.54;103387.94;4990577;27;20016;-71
2022/03/19 09:33:34;;;;;;;3.13;2.10;;;;;;;14.24;36.62;103385.28;5032366;27;20627;-72
2022/03/19 09:36:01;;;;;;;2.85;2.03;;;;;;;15.00;35.90;103389.34;5031017;27;20027;-72
2022/03/19 09:38:27;;;;;;;3.47;2.17;;;;;;;15.35;34.56;103382.63;5042074;27;20020;-69
2022/03/19 09:40:53;;;;;;;5.63;1.95;;;;;;;15.36;33.45;103377.19;5043068;27;20741;-72
2022/03/19 09:43:18;;;;;;;4.75;1.98;;;;;;;15.97;31.72;103372.13;5039046;27;20016;-72
2022/03/19 09:45:43;;;;;;;2.00;1.80;;;;;;;16.00;30.88;103372.88;5056048;27;20028;-72
2022/03/19 09:48:09;;;;;;;2.10;1.60;;;;;;;15.90;30.82;103370.84;5046126;27;20363;-74
2022/03/19 09:50:35;;;;;;;3.42;1.75;;;;;;;16.28;29.62;103369.94;5058274;27;20009;-72
2022/03/19 09:53:01;;;;;;;3.38;1.60;;;;;;;15.88;28.46;103359.44;5056148;27;20017;-72
2022/03/19 09:55:27;;;;;;;2.65;1.70;;;;;;;16.35;29.24;103353.50;5010231;27;21564;-72
2022/03/19 09:57:53;;;;;;;1.60;1.50;;;;;;;16.59;27.97;103340.16;5028197;28;20025;-72
2022/03/19 10:00:22;;;;;;;1.75;1.40;;;;;;;17.05;28.07;103335.88;5030076;27;20045;-72
2022/03/19 10:02:53;;;;;;;1.67;1.42;;;;;;;17.25;27.83;103348.63;5032124;27;20091;-72
2022/03/19 10:10:49;;;;;;;1.50;1.40;;;;;;;17.54;25.68;103331.28;5027939;27;20152;-72
2022/03/19 10:13:15;;;;;;;4.78;1.20;;;;;;;17.85;24.55;103313.66;5038563;27;20899;-72
2022/03/19 10:15:41;;;;;;;1.70;1.38;;;;;;;18.01;23.94;103307.97;5051622;27;20512;-73
2022/03/19 10:18:07;;;;;;;20.13;1.90;;;;;;;18.15;22.26;103315.75;5058915;27;20779;-71
2022/03/19 10:20:34;;;;;;;1.83;1.25;;;;;;;18.47;21.47;103314.97;5016402;27;20041;-70
2022/03/19 10:23:00;;;;;;;0.90;0.90;;;;;;;17.73;21.55;103304.78;5027795;27;20113;-70
2022/03/19 10:25:25;;;;;;;1.02;0.95;;;;;;;17.66;20.54;103300.88;5043143;27;20537;-70
2022/03/19 10:27:50;;;;;;;1.20;1.10;;;;;;;18.12;21.85;103302.59;4998748;28;20012;-69
2022/03/19 10:30:19;;;;;;;3.20;1.30;;;;;;;18.66;20.05;103291.97;5028114;27;20013;-71
2022/03/19 10:32:49;;;;;;;1.23;1.10;;;;;;;17.56;20.77;103291.88;5040505;27;20035;-71
2022/03/19 10:35:30;;;;;;;1.38;1.10;;;;;;;17.30;21.39;103298.28;5030643;27;20021;-72
2022/03/19 10:37:56;;;;;;;2.03;1.00;;;;;;;18.22;21.79;103283.06;5036230;27;20101;-71
2022/03/19 10:40:22;;;;;;;1.33;1.23;;;;;;;18.23;21.20;103279.44;5036006;27;20487;-71
2022/03/19 10:42:47;;;;;;;1.30;1.20;;;;;;;19.39;21.36;103278.69;5032918;27;20029;-71
2022/03/19 10:45:20;;;;;;;2.38;1.48;;;;;;;19.53;21.04;103272.97;5020897;27;20914;-71
2022/03/19 10:47:46;;;;;;;1.40;1.20;;;;;;;19.43;22.06;103284.63;5001353;27;20783;-71
2022/03/19 10:50:18;;;;;;;1.25;1.15;;;;;;;20.29;21.09;103270.81;5034041;27;20074;-71
2022/03/19 10:52:43;;;;;;;1.60;1.30;;;;;;;20.16;20.07;103255.78;5035439;27;20042;-72
2022/03/19 10:55:09;;;;;;;1.60;1.30;;;;;;;19.99;21.08;103264.53;5009999;27;20307;-71
2022/03/19 10:57:35;;;;;;;1.83;1.30;;;;;;;20.22;22.17;103265.13;5016283;27;20021;-71
2022/03/19 11:00:00;;;;;;;3.90;1.60;;;;;;;20.57;21.56;103247.59;5020693;27;20029;-71
2022/03/19 11:02:27;;;;;;;1.10;1.10;;;;;;;19.48;21.50;103242.97;5011277;28;20053;-71
2022/03/19 11:04:52;;;;;;;1.50;1.40;;;;;;;19.99;21.59;103246.53;5012231;27;20290;-72
2022/03/19 11:07:18;;;;;;;1.30;1.20;;;;;;;20.36;20.38;103239.66;4993100;27;20018;-72
2022/03/19 11:09:43;;;;;;;1.40;1.33;;;;;;;21.04;20.44;103246.88;5018718;27;20013;-72
2022/03/19 11:12:09;;;;;;;1.30;1.20;;;;;;;22.37;19.49;103234.06;5029690;27;20022;-72
2022/03/19 11:14:35;;;;;;;1.48;1.38;;;;;;;22.40;19.76;103221.09;5017760;27;20009;-72
2022/03/19 11:17:27;;;;;;;1.38;1.27;;;;;;;21.36;19.78;103224.09;5050806;27;20073;-73
2022/03/19 11:20:04;;;;;;;1.83;1.73;;;;;;;22.28;18.88;103214.25;5047564;27;20021;-71
2022/03/19 11:22:39;;;;;;;1.38;1.20;;;;;;;22.24;18.20;103204.75;5039674;27;20546;-72
2022/03/19 11:25:16;;;;;;;1.20;1.20;;;;;;;21.35;18.24;103196.34;5043617;27;20299;-72
2022/03/19 11:27:43;;;;;;;1.90;1.15;;;;;;;21.99;19.26;103190.19;5049608;27;20028;-71
2022/03/19 11:30:25;;;;;;;2.08;1.27;;;;;;;22.01;18.43;103178.25;5045086;27;19994;-72
2022/03/19 11:33:05;;;;;;;1.25;1.20;;;;;;;22.79;18.59;103182.13;5063001;27;20008;-71
2022/03/19 11:35:31;;;;;;;1.40;1.30;;;;;;;23.27;18.98;103169.09;5014518;27;20025;-71
2022/03/19 11:38:01;;;;;;;1.30;1.20;;;;;;;23.89;18.41;103168.78;5024363;27;20026;-71
2022/03/19 11:40:34;;;;;;;1.55;1.20;;;;;;;24.69;17.99;103172.69;5033993;27;20093;-71
2022/03/19 11:43:04;;;;;;;1.77;1.30;;;;;;;24.29;16.99;103167.13;5032254;27;20195;-71
2022/03/19 11:46:02;;;;;;;1.27;1.17;;;;;;;24.58;16.46;103157.63;5013843;27;20021;-71